Terminal Aerodrome Forecast
Issued by NWS

Home | Current Version | Previous Version | Text Only | Print | Product List | Glossary On
Versions: 1 2 3 4 5 6 7 8 9 10 11 12 13 14 15 16 17 18 19 20
000
FTUS44 KLZK 272143 AAA
TAFHOT
TAF AMD
KHOT 272143Z 2722/2818 10008KT P6SM VCSH OVC015
     FM280600 15006KT P6SM VCSH OVC015
     FM281200 20007KT P6SM VCSH SCT008 OVC015=

USA.gov is the U.S. government's official web portal to all federal, state and local government web resources and services.